»·PEaware :: UAL361 KLAS-KSFO

UAL361 :: KLAS-KSFO

FLIGHT INFORMATION

Flight Status: Arrived
Operator:
United Airlines
More flights by this operator :: More flights under this callsign
Pilot: Brad Z. (13827)
Aircraft: AIRBUS A319
(A319)
More flights by this aircraft type
Origin: KLAS McCarran Intl
United States
Destination: KSFO San Francisco Intl
United States
More flights between these airports :: More routes between these airports
Route: BOACH8 HEC PMD AVE MAKRS SERFR SERFR3
File this flight plan on PilotEdge
Remarks:
Altitude:
(Current/Filed)
280ft
Speed:
(Current/Filed)
541kts
Departed: 31-Jul-18 04:14 PM
Arrived: 31-Jul-18 05:32 PM
Distance/Time
Traveled:
359nm/1:18
Distance/Time
To Go:
Arrived

Flight Plot

Page will automatically refresh every two minutes.

Flight plan parsing failed; only flown route is shown


Map Options




Map Legend


Flown Route
Filed Route
Departure Airport
Arrival Airport
Navaid (VOR, NDB)
Fix

Horizontal Profiles

Position Reports

Time Latitude Longitude Heading Altitude Ground
Speed
31-Jul-18 15:50 36.082914 -115.140478 104 2195ft 0kts
31-Jul-18 15:51 36.082914 -115.140478 104 2195ft 0kts
31-Jul-18 15:52 36.082914 -115.140478 104 2195ft 0kts
31-Jul-18 15:53 36.082914 -115.140478 104 2195ft 0kts
31-Jul-18 15:54 36.082914 -115.140478 104 2195ft 0kts
31-Jul-18 15:55 36.082914 -115.140478 104 2195ft 0kts
31-Jul-18 15:56 36.082914 -115.140478 104 2195ft 0kts
31-Jul-18 15:57 36.082914 -115.140478 104 2195ft 0kts
31-Jul-18 15:58 36.082914 -115.140478 104 2195ft 0kts
31-Jul-18 15:59 36.082914 -115.140478 104 2195ft 0kts
31-Jul-18 16:00 36.082914 -115.140478 104 2195ft 0kts
31-Jul-18 16:01 36.082914 -115.140478 104 2195ft 0kts
31-Jul-18 16:02 36.082944 -115.140615 104 2195ft 2kts
31-Jul-18 16:03 36.083112 -115.141387 104 2195ft 2kts
31-Jul-18 16:04 36.083148 -115.141550 104 2195ft 0kts
31-Jul-18 16:05 36.083147 -115.141549 104 2195ft 0kts
31-Jul-18 16:06 36.083147 -115.141548 104 2195ft 0kts
31-Jul-18 16:07 36.083147 -115.141546 104 2195ft 0kts
31-Jul-18 16:08 36.082069 -115.141582 186 2195ft 9kts
31-Jul-18 16:09 36.078724 -115.142380 203 2195ft 12kts
31-Jul-18 16:10 36.077714 -115.145838 271 2195ft 10kts
31-Jul-18 16:11 36.078029 -115.151647 270 2195ft 23kts
31-Jul-18 16:12 36.078017 -115.158740 269 2195ft 22kts
31-Jul-18 16:13 36.077423 -115.161269 179 2195ft 0kts
31-Jul-18 16:14 36.076393 -115.160886 86 2195ft 1kts
31-Jul-18 16:15 36.076561 -115.126814 88 2629ft 172kts
31-Jul-18 16:16 36.076472 -115.076774 92 4369ft 182kts
31-Jul-18 16:17 36.074696 -114.988420 92 5633ft 260kts
31-Jul-18 16:18 36.024461 -114.927644 163 7881ft 288kts
31-Jul-18 16:19 35.945911 -114.919448 212 10523ft 302kts
31-Jul-18 16:20 35.892986 -114.985218 225 11795ft 349kts
31-Jul-18 16:21 35.820251 -115.076049 227 13011ft 380kts
31-Jul-18 16:22 35.754054 -115.178162 230 13014ft 380kts
31-Jul-18 16:23 35.687194 -115.280666 229 14875ft 389kts
31-Jul-18 16:24 35.601130 -115.398388 225 17482ft 404kts
31-Jul-18 16:25 35.537374 -115.484045 226 19250ft 413kts
31-Jul-18 16:26 35.458726 -115.589378 226 21137ft 425kts
31-Jul-18 16:27 35.377593 -115.697699 227 22835ft 436kts
31-Jul-18 16:28 35.294658 -115.808019 227 24301ft 446kts
31-Jul-18 16:29 35.210271 -115.919961 227 26072ft 443kts
31-Jul-18 16:30 35.127615 -116.029315 227 27906ft 435kts
31-Jul-18 16:31 35.045579 -116.137307 227 27968ft 434kts
31-Jul-18 16:32 34.963227 -116.245499 227 27978ft 434kts
31-Jul-18 16:33 34.880793 -116.353490 227 27991ft 434kts
31-Jul-18 16:34 34.804094 -116.465998 243 28016ft 433kts
31-Jul-18 16:35 34.782671 -116.609959 263 27970ft 435kts
31-Jul-18 16:36 34.768208 -116.756008 262 27995ft 435kts
31-Jul-18 16:37 34.753710 -116.902605 262 28022ft 435kts
31-Jul-18 16:38 34.738935 -117.048376 261 28053ft 434kts
31-Jul-18 16:39 34.724020 -117.194253 261 28084ft 433kts
31-Jul-18 16:40 34.708941 -117.340007 261 28049ft 434kts
31-Jul-18 16:41 34.693736 -117.485294 261 28044ft 434kts
31-Jul-18 16:42 34.678266 -117.631137 261 28044ft 434kts
31-Jul-18 16:43 34.662723 -117.776315 261 28045ft 434kts
31-Jul-18 16:44 34.646950 -117.921887 261 28027ft 434kts
31-Jul-18 16:45 34.641475 -118.067283 282 28019ft 437kts
31-Jul-18 16:46 34.702997 -118.195325 302 27994ft 441kts
31-Jul-18 16:47 34.770252 -118.319726 301 28000ft 441kts
31-Jul-18 16:48 34.837799 -118.444447 301 28061ft 439kts
31-Jul-18 16:49 34.904645 -118.568787 300 28115ft 440kts
31-Jul-18 16:50 34.971798 -118.693987 300 28210ft 441kts
31-Jul-18 16:51 35.038731 -118.819240 300 28180ft 441kts
31-Jul-18 16:52 35.105638 -118.944891 300 28116ft 440kts
31-Jul-18 16:53 35.172067 -119.070101 300 28023ft 440kts
31-Jul-18 16:54 35.238583 -119.195934 300 27933ft 439kts
31-Jul-18 16:55 35.304739 -119.321508 300 27889ft 439kts
31-Jul-18 16:56 35.370650 -119.447089 299 27899ft 439kts
31-Jul-18 16:57 35.436711 -119.573389 299 27956ft 439kts
31-Jul-18 16:58 35.502580 -119.699793 299 27952ft 440kts
31-Jul-18 16:59 35.568391 -119.826550 299 27939ft 439kts
31-Jul-18 17:00 35.633495 -119.953207 296 27922ft 437kts
31-Jul-18 17:01 35.658915 -120.096011 272 27901ft 428kts
31-Jul-18 17:02 35.672826 -120.241351 274 27922ft 429kts
31-Jul-18 17:03 35.697329 -120.384499 291 27953ft 435kts
31-Jul-18 17:04 35.750188 -120.519199 291 27993ft 436kts
31-Jul-18 17:05 35.801267 -120.654520 292 27994ft 436kts
31-Jul-18 17:06 35.852786 -120.790086 291 27996ft 435kts
31-Jul-18 17:07 35.903894 -120.925338 291 27960ft 436kts
31-Jul-18 17:08 35.954760 -121.060705 291 27980ft 434kts
31-Jul-18 17:09 36.004615 -121.193504 291 27213ft 415kts
31-Jul-18 17:10 36.052650 -121.322041 293 26218ft 411kts
31-Jul-18 17:11 36.135974 -121.418428 325 25223ft 419kts
31-Jul-18 17:12 36.234299 -121.493857 324 24228ft 413kts
31-Jul-18 17:13 36.331163 -121.569964 325 23230ft 408kts
31-Jul-18 17:14 36.426312 -121.644728 325 22235ft 401kts
31-Jul-18 17:15 36.519828 -121.718483 325 21241ft 396kts
31-Jul-18 17:16 36.612211 -121.791475 325 20241ft 390kts
31-Jul-18 17:17 36.702919 -121.863477 325 18386ft 385kts
31-Jul-18 17:18 36.801563 -121.911875 348 16298ft 384kts
31-Jul-18 17:19 36.904174 -121.939437 346 14229ft 369kts
31-Jul-18 17:20 37.001032 -121.971913 342 12283ft 350kts
31-Jul-18 17:21 37.091207 -122.007374 342 10795ft 319kts
31-Jul-18 17:22 37.168762 -122.037705 342 9346ft 278kts
31-Jul-18 17:23 37.243399 -122.066950 341 8026ft 285kts
31-Jul-18 17:24 37.317267 -122.095982 341 7225ft 267kts
31-Jul-18 17:25 37.386444 -122.123448 343 5758ft 245kts
31-Jul-18 17:26 37.451465 -122.145474 342 4213ft 242kts
31-Jul-18 17:27 37.514058 -122.166940 341 3108ft 220kts
31-Jul-18 17:28 37.549445 -122.210078 296 2610ft 172kts
31-Jul-18 17:29 37.568711 -122.255957 299 1883ft 128kts
31-Jul-18 17:30 37.585268 -122.295432 303 1159ft 122kts
31-Jul-18 17:31 37.600152 -122.330823 299 545ft 112kts
31-Jul-18 17:32 37.614685 -122.365379 299 32ft 106kts
31-Jul-18 17:33 37.621617 -122.382805 240 27ft 12kts
31-Jul-18 17:34 37.622275 -122.386452 296 27ft 16kts
31-Jul-18 17:35 37.622841 -122.391680 227 27ft 15kts
31-Jul-18 17:36 37.620009 -122.391019 118 27ft 8kts
31-Jul-18 17:37 37.619442 -122.389192 35 27ft 0kts
31-Jul-18 17:38 37.620024 -122.388803 27 27ft 0kts
31-Jul-18 17:39 37.620025 -122.388803 27 27ft 0kts

Navigation Log

Ident Type
Flight plan parsing failed, navigation log unavailable